Trig Lind — WC8177 — position and weather

sailwx.info

Track history (hours):
 
Tides and Currents Weather Stations Pressure Air Temp Water Temp Dewpoint Dewpoint Depression Visibility Wind Speed Wind Dir Waves Ship Positions

Trig Lind

Owner: JERICO PRODUCTS INC, PETALUMA, CA. More information available from US FCC via Universal Licensing System and Coast Guard Vessel Documentation Center.

Last reported at 2018-Feb-05 20:49 UTC. Time now 2018-Feb-18 06:57 UTC.
Position N 38°06' W 122°16'.
Warning: this ship's position is 12 days out of date.

Length 22 m; draft 1.8 m.

Type: Tug. MMSI: 366508420.

Date/timePositionNaut miles runAvg speedWind from/ knotsBaromVisibWave heightAir tempDewpointWater temp
2018-Feb-05 20:49N 38°06' W 122°16'0 0.1
2018-Feb-05 20:30N 38°06' W 122°16'2 4.1
2018-Feb-05 20:00N 38°04' W 122°14'0 0.2
2018-Feb-05 19:30N 38°04' W 122°14'0 0.0
2018-Feb-05 19:00N 38°04' W 122°14'0 0.0
2018-Feb-05 18:30N 38°04' W 122°14'0 0.0
2018-Feb-05 18:00N 38°04' W 122°14'0 0.0
2018-Feb-05 17:30N 38°04' W 122°14'1 1.1
2018-Feb-05 17:00N 38°04' W 122°15'1 1.5
2018-Feb-05 16:30N 38°05' W 122°15'1 1.7
2018-Feb-05 16:00N 38°05' W 122°15'3 5.6
2018-Feb-05 15:30N 38°04' W 122°12'4 8.1
2018-Feb-05 15:00N 38°02' W 122°08'5 7.3
2018-Feb-05 14:23N 38°04' W 122°02'3 6.0
2018-Feb-05 13:57N 38°03' W 121°59'2 3.5
2018-Feb-05 13:29N 38°03' W 121°57'3 5.6
2018-Feb-05 13:00N 38°03' W 121°53'3 5.6
2018-Feb-05 12:25N 38°04' W 121°49'1 0.1
2018-Feb-04 18:19N 38°04' W 121°51'2 6.4
2018-Feb-04 18:00N 38°03' W 121°53'15 6.0
2018-Feb-04 15:30N 38°03' W 122°12'3 6.9
2018-Feb-04 15:00N 38°06' W 122°15'0 0.5
2018-Feb-04 14:30N 38°06' W 122°16'0 0.4
2018-Feb-04 14:00N 38°06' W 122°16'0 0.0
2018-Feb-04 13:30N 38°06' W 122°16'  
2018-Feb-01 22:00N 38°06' W 122°16'2 3.9
2018-Feb-01 21:28N 38°04' W 122°14'11 5.2
2018-Feb-01 19:20N 38°04' W 122°00'3 7.3
2018-Feb-01 18:54N 38°03' W 121°56'4 0.4
2018-Feb-01 08:21N 38°04' W 121°51'0 0.0
2018-Feb-01 07:24N 38°04' W 121°51'0 0.0
2018-Feb-01 06:37N 38°04' W 121°51'0 0.0
2018-Feb-01 06:30N 38°04' W 121°51'0 0.6
2018-Feb-01 05:44N 38°04' W 121°52'1 5.6
2018-Feb-01 05:30N 38°03' W 121°53'4 5.3
2018-Feb-01 04:43N 38°03' W 121°58'2 5.4
2018-Feb-01 04:17N 38°04' W 122°01'2 4.9
2018-Feb-01 03:51N 38°03' W 122°04'5 4.9
2018-Feb-01 02:56N 38°02' W 122°09'3 4.9
2018-Feb-01 02:17N 38°03' W 122°13'1 4.4
2018-Feb-01 02:00N 38°04' W 122°14'2 4.1
2018-Feb-01 01:30N 38°06' W 122°16'0 0.3
2018-Feb-01 00:57N 38°06' W 122°16'0 1.0
2018-Feb-01 00:30N 38°05' W 122°15'1 2.5
2018-Feb-01 00:00N 38°04' W 122°15'4 4.1
2018-Jan-31 23:00N 38°02' W 122°20'2 4.4
2018-Jan-31 22:29N 38°01' W 122°23'6 4.2
2018-Jan-31 21:00N 37°55' W 122°25'3 6.0
2018-Jan-31 20:30N 37°52' W 122°24'3 6.4
2018-Jan-31 20:00N 37°50' W 122°22'3 6.3
2018-Jan-31 19:30N 37°47' W 122°20'3 5.7
2018-Jan-31 19:00N 37°44' W 122°19'3 5.1
2018-Jan-31 18:30N 37°42' W 122°17'2 4.7
2018-Jan-31 18:00N 37°40' W 122°16'2 4.2
2018-Jan-31 17:30N 37°38' W 122°14'1 1.2
2018-Jan-31 17:00N 37°38' W 122°14'1 2.5
2018-Jan-31 16:30N 37°39' W 122°14'1 1.2
2018-Jan-31 16:00N 37°38' W 122°14'1 1.1
2018-Jan-31 15:30N 37°39' W 122°15'1 1.9
2018-Jan-31 15:00N 37°38' W 122°14'1 1.1
2018-Jan-31 14:30N 37°38' W 122°13'1 0.5
2018-Jan-31 13:00N 37°38' W 122°14'1 1.8
2018-Jan-31 12:30N 37°39' W 122°15'0 0.6
2018-Jan-31 12:00N 37°39' W 122°15'1 1.2
2018-Jan-31 11:30N 37°38' W 122°15'0 0.9
2018-Jan-31 11:00N 37°38' W 122°15'1 1.7
2018-Jan-31 10:29N 37°38' W 122°13'1 2.4
2018-Jan-31 10:00N 37°39' W 122°14'0 0.1
2018-Jan-31 09:30N 37°39' W 122°14'1 1.1
2018-Jan-31 09:00N 37°39' W 122°14'0 0.5
2018-Jan-31 08:30N 37°39' W 122°14'1 1.8
2018-Jan-31 08:00N 37°38' W 122°14'1 1.1
2018-Jan-31 07:30N 37°37' W 122°14'1 1.3
2018-Jan-31 07:00N 37°38' W 122°13'1 2.3
2018-Jan-31 06:30N 37°39' W 122°14'1 1.3
2018-Jan-31 06:00N 37°38' W 122°14'1 1.6
2018-Jan-31 05:30N 37°38' W 122°13'1 1.8
2018-Jan-31 05:00N 37°39' W 122°14'1 1.9
2018-Jan-31 04:30N 37°38' W 122°14'1 1.5
2018-Jan-31 04:00N 37°38' W 122°14'1 1.1
2018-Jan-31 03:30N 37°38' W 122°14'1 1.5
2018-Jan-31 03:00N 37°37' W 122°14'0 0.6
2018-Jan-31 02:29N 37°38' W 122°14'1 2.7
2018-Jan-31 02:00N 37°39' W 122°15'2 3.6
2018-Jan-31 01:30N 37°40' W 122°16'3 5.8
2018-Jan-31 01:01N 37°43' W 122°18'6 5.5
2018-Jan-31 00:00N 37°48' W 122°21'1 2.6
2018-Jan-30 23:30N 37°49' W 122°21'2 4.4
2018-Jan-30 23:00N 37°51' W 122°23'3 6.2
2018-Jan-30 22:30N 37°54' W 122°24'7 7.3
2018-Jan-30 21:29N 38°01' W 122°23'3 6.5
2018-Jan-30 21:00N 38°02' W 122°20'3 5.8
2018-Jan-30 20:30N 38°03' W 122°16'2 4.7
2018-Jan-30 20:00N 38°03' W 122°13'2 4.3
2018-Jan-30 19:30N 38°03' W 122°11'2 3.9
2018-Jan-30 19:00N 38°02' W 122°08'2 3.7
2018-Jan-30 18:23N 38°03' W 122°06'3 4.5
2018-Jan-30 17:45N 38°04' W 122°02'1 3.3
2018-Jan-30 17:25N 38°04' W 122°01'2 3.6
2018-Jan-30 16:57N 38°03' W 121°58'2 4.3
2018-Jan-30 16:26N 38°03' W 121°56'2 4.4
2018-Jan-30 16:00N 38°03' W 121°53'2 0.5
2018-Jan-30 11:10N 38°05' W 121°51'0 0.0
2018-Jan-30 10:30N 38°05' W 121°51'0 0.0
2018-Jan-30 09:28N 38°05' W 121°51'0 0.0
2018-Jan-30 08:46N 38°05' W 121°51'0 0.0
2018-Jan-30 08:30N 38°05' W 121°51'1 1.3
2018-Jan-30 08:00N 38°04' W 121°51'0 0.0
2018-Jan-30 07:30N 38°04' W 121°51'0 0.0
2018-Jan-30 07:00N 38°04' W 121°51'1 1.7
2018-Jan-30 06:28N 38°04' W 121°52'3 5.8
2018-Jan-30 05:59N 38°03' W 121°55'3 5.5
2018-Jan-30 05:24N 38°04' W 121°59'2 5.4
2018-Jan-30 05:00N 38°04' W 122°02'3 5.1
2018-Jan-30 04:30N 38°03' W 122°05'2 4.9
2018-Jan-30 04:00N 38°02' W 122°08'2 4.7
2018-Jan-30 03:30N 38°03' W 122°11'2 3.9
2018-Jan-30 03:00N 38°04' W 122°13'2 3.1
2018-Jan-30 02:30N 38°04' W 122°15'1 2.9
2018-Jan-30 02:00N 38°03' W 122°17'2 3.5
2018-Jan-30 01:30N 38°03' W 122°19'2 3.2
2018-Jan-30 01:00N 38°02' W 122°21'2 3.7
2018-Jan-30 00:30N 38°01' W 122°23'2 3.7
2018-Jan-30 00:00N 37°60' W 122°24'2 4.3
2018-Jan-29 23:30N 37°58' W 122°26'2 3.8
2018-Jan-29 23:00N 37°56' W 122°26'2 3.4
2018-Jan-29 22:30N 37°54' W 122°25'2 4.0
2018-Jan-29 22:00N 37°53' W 122°24'3 6.0
2018-Jan-29 21:30N 37°50' W 122°22'4 7.5
2018-Jan-29 21:01N 37°47' W 122°20'4 7.8
2018-Jan-29 20:30N 37°43' W 122°18'4 7.2
2018-Jan-29 20:00N 37°40' W 122°15'1 2.7
2018-Jan-29 19:30N 37°39' W 122°14'1 1.0
2018-Jan-29 19:00N 37°39' W 122°14'0 0.4
2018-Jan-29 18:30N 37°39' W 122°14'0 0.8
2018-Jan-29 18:00N 37°38' W 122°13'1 1.7
2018-Jan-29 17:30N 37°39' W 122°14'1 1.2
2018-Jan-29 17:00N 37°38' W 122°14'0 0.9
2018-Jan-29 16:30N 37°39' W 122°14'1 1.3
2018-Jan-29 16:00N 37°39' W 122°13'1 1.7
2018-Jan-29 15:30N 37°39' W 122°15'1 1.9
2018-Jan-29 15:00N 37°38' W 122°13'1 1.5
2018-Jan-29 14:30N 37°37' W 122°13'1 1.3
2018-Jan-29 13:59N 37°37' W 122°14'1 1.4
2018-Jan-29 13:30N 37°38' W 122°13'1 2.5
2018-Jan-29 13:00N 37°38' W 122°15'1 1.6
2018-Jan-29 12:30N 37°38' W 122°14'1 1.3
2018-Jan-29 12:00N 37°38' W 122°13'0 0.6
2018-Jan-29 11:30N 37°38' W 122°13'1 1.8
2018-Jan-29 11:00N 37°39' W 122°14'0 0.8
2018-Jan-29 10:30N 37°39' W 122°15'1 1.5
2018-Jan-29 10:00N 37°39' W 122°14'1 1.6
2018-Jan-29 09:30N 37°39' W 122°15'1 1.7
2018-Jan-29 09:00N 37°39' W 122°14'1 1.1
2018-Jan-29 08:30N 37°39' W 122°14'0 1.0
2018-Jan-29 08:00N 37°38' W 122°15'1 1.7
2018-Jan-29 07:30N 37°39' W 122°14'1 1.1
2018-Jan-29 07:00N 37°39' W 122°14'0 1.0
2018-Jan-29 06:30N 37°38' W 122°15'1 2.3
2018-Jan-29 06:00N 37°39' W 122°13'1 2.1
2018-Jan-29 05:30N 37°39' W 122°15'0 1.0
2018-Jan-29 05:00N 37°39' W 122°14'0 1.0
2018-Jan-29 04:30N 37°39' W 122°14'1 1.4
2018-Jan-29 04:00N 37°38' W 122°14'1 1.3
2018-Jan-29 03:30N 37°38' W 122°13'0 0.5
2018-Jan-29 02:59N 37°38' W 122°13'1 1.3
2018-Jan-29 02:30N 37°38' W 122°14'1 1.2
2018-Jan-29 02:00N 37°38' W 122°14'2 3.8
2018-Jan-29 01:30N 37°40' W 122°16'4 7.3
2018-Jan-29 01:01N 37°43' W 122°18'4 7.2
2018-Jan-29 00:30N 37°46' W 122°20'3 7.0
2018-Jan-29 00:00N 37°50' W 122°22'3 6.7
2018-Jan-28 23:30N 37°53' W 122°24'4 8.2
2018-Jan-28 23:00N 37°56' W 122°26'4 8.7
2018-Jan-28 22:29N 38°01' W 122°24'5 9.4
2018-Jan-28 22:00N 38°03' W 122°19'4 7.4
2018-Jan-28 21:30N 38°05' W 122°15'0 0.7
2018-Jan-28 21:00N 38°06' W 122°16'  
Track history (hours):
 
Tides and Currents Weather Stations Pressure Air Temp Water Temp Dewpoint Dewpoint Depression Visibility Wind Speed Wind Dir Waves Ship Positions

Trig Lind

Owner: JERICO PRODUCTS INC, PETALUMA, CA. More information available from US FCC via Universal Licensing System and Coast Guard Vessel Documentation Center.

Last reported at 2018-Feb-05 20:49 UTC. Time now 2018-Feb-18 06:57 UTC.
Position N 38°06' W 122°16'.
Warning: this ship's position is 12 days out of date.

Length 22 m; draft 1.8 m.

Type: Tug. MMSI: 366508420.

Date/timePositionNaut miles runAvg speedWind from/ knotsBaromVisibWave heightAir tempDewpointWater temp
2018-Feb-05 20:49N 38°06' W 122°16'0 0.1
2018-Feb-05 20:30N 38°06' W 122°16'2 4.1
2018-Feb-05 20:00N 38°04' W 122°14'0 0.2
2018-Feb-05 19:30N 38°04' W 122°14'0 0.0
2018-Feb-05 19:00N 38°04' W 122°14'0 0.0
2018-Feb-05 18:30N 38°04' W 122°14'0 0.0
2018-Feb-05 18:00N 38°04' W 122°14'0 0.0
2018-Feb-05 17:30N 38°04' W 122°14'1 1.1
2018-Feb-05 17:00N 38°04' W 122°15'1 1.5
2018-Feb-05 16:30N 38°05' W 122°15'1 1.7
2018-Feb-05 16:00N 38°05' W 122°15'3 5.6
2018-Feb-05 15:30N 38°04' W 122°12'4 8.1
2018-Feb-05 15:00N 38°02' W 122°08'5 7.3
2018-Feb-05 14:23N 38°04' W 122°02'3 6.0
2018-Feb-05 13:57N 38°03' W 121°59'2 3.5
2018-Feb-05 13:29N 38°03' W 121°57'3 5.6
2018-Feb-05 13:00N 38°03' W 121°53'3 5.6
2018-Feb-05 12:25N 38°04' W 121°49'1 0.1
2018-Feb-04 18:19N 38°04' W 121°51'2 6.4
2018-Feb-04 18:00N 38°03' W 121°53'15 6.0
2018-Feb-04 15:30N 38°03' W 122°12'3 6.9
2018-Feb-04 15:00N 38°06' W 122°15'0 0.5
2018-Feb-04 14:30N 38°06' W 122°16'0 0.4
2018-Feb-04 14:00N 38°06' W 122°16'0 0.0
2018-Feb-04 13:30N 38°06' W 122°16'  
2018-Feb-01 22:00N 38°06' W 122°16'2 3.9
2018-Feb-01 21:28N 38°04' W 122°14'11 5.2
2018-Feb-01 19:20N 38°04' W 122°00'3 7.3
2018-Feb-01 18:54N 38°03' W 121°56'4 0.4
2018-Feb-01 08:21N 38°04' W 121°51'0 0.0
2018-Feb-01 07:24N 38°04' W 121°51'0 0.0
2018-Feb-01 06:37N 38°04' W 121°51'0 0.0
2018-Feb-01 06:30N 38°04' W 121°51'0 0.6
2018-Feb-01 05:44N 38°04' W 121°52'1 5.6
2018-Feb-01 05:30N 38°03' W 121°53'4 5.3
2018-Feb-01 04:43N 38°03' W 121°58'2 5.4
2018-Feb-01 04:17N 38°04' W 122°01'2 4.9
2018-Feb-01 03:51N 38°03' W 122°04'5 4.9
2018-Feb-01 02:56N 38°02' W 122°09'3 4.9
2018-Feb-01 02:17N 38°03' W 122°13'1 4.4
2018-Feb-01 02:00N 38°04' W 122°14'2 4.1
2018-Feb-01 01:30N 38°06' W 122°16'0 0.3
2018-Feb-01 00:57N 38°06' W 122°16'0 1.0
2018-Feb-01 00:30N 38°05' W 122°15'1 2.5
2018-Feb-01 00:00N 38°04' W 122°15'4 4.1
2018-Jan-31 23:00N 38°02' W 122°20'2 4.4
2018-Jan-31 22:29N 38°01' W 122°23'6 4.2
2018-Jan-31 21:00N 37°55' W 122°25'3 6.0
2018-Jan-31 20:30N 37°52' W 122°24'3 6.4
2018-Jan-31 20:00N 37°50' W 122°22'3 6.3
2018-Jan-31 19:30N 37°47' W 122°20'3 5.7
2018-Jan-31 19:00N 37°44' W 122°19'3 5.1
2018-Jan-31 18:30N 37°42' W 122°17'2 4.7
2018-Jan-31 18:00N 37°40' W 122°16'2 4.2
2018-Jan-31 17:30N 37°38' W 122°14'1 1.2
2018-Jan-31 17:00N 37°38' W 122°14'1 2.5
2018-Jan-31 16:30N 37°39' W 122°14'1 1.2
2018-Jan-31 16:00N 37°38' W 122°14'1 1.1
2018-Jan-31 15:30N 37°39' W 122°15'1 1.9
2018-Jan-31 15:00N 37°38' W 122°14'1 1.1
2018-Jan-31 14:30N 37°38' W 122°13'1 0.5
2018-Jan-31 13:00N 37°38' W 122°14'1 1.8
2018-Jan-31 12:30N 37°39' W 122°15'0 0.6
2018-Jan-31 12:00N 37°39' W 122°15'1 1.2
2018-Jan-31 11:30N 37°38' W 122°15'0 0.9
2018-Jan-31 11:00N 37°38' W 122°15'1 1.7
2018-Jan-31 10:29N 37°38' W 122°13'1 2.4
2018-Jan-31 10:00N 37°39' W 122°14'0 0.1
2018-Jan-31 09:30N 37°39' W 122°14'1 1.1
2018-Jan-31 09:00N 37°39' W 122°14'0 0.5
2018-Jan-31 08:30N 37°39' W 122°14'1 1.8
2018-Jan-31 08:00N 37°38' W 122°14'1 1.1
2018-Jan-31 07:30N 37°37' W 122°14'1 1.3
2018-Jan-31 07:00N 37°38' W 122°13'1 2.3
2018-Jan-31 06:30N 37°39' W 122°14'1 1.3
2018-Jan-31 06:00N 37°38' W 122°14'1 1.6
2018-Jan-31 05:30N 37°38' W 122°13'1 1.8
2018-Jan-31 05:00N 37°39' W 122°14'1 1.9
2018-Jan-31 04:30N 37°38' W 122°14'1 1.5
2018-Jan-31 04:00N 37°38' W 122°14'1 1.1
2018-Jan-31 03:30N 37°38' W 122°14'1 1.5
2018-Jan-31 03:00N 37°37' W 122°14'0 0.6
2018-Jan-31 02:29N 37°38' W 122°14'1 2.7
2018-Jan-31 02:00N 37°39' W 122°15'2 3.6
2018-Jan-31 01:30N 37°40' W 122°16'3 5.8
2018-Jan-31 01:01N 37°43' W 122°18'6 5.5
2018-Jan-31 00:00N 37°48' W 122°21'1 2.6
2018-Jan-30 23:30N 37°49' W 122°21'2 4.4
2018-Jan-30 23:00N 37°51' W 122°23'3 6.2
2018-Jan-30 22:30N 37°54' W 122°24'7 7.3
2018-Jan-30 21:29N 38°01' W 122°23'3 6.5
2018-Jan-30 21:00N 38°02' W 122°20'3 5.8
2018-Jan-30 20:30N 38°03' W 122°16'2 4.7
2018-Jan-30 20:00N 38°03' W 122°13'2 4.3
2018-Jan-30 19:30N 38°03' W 122°11'2 3.9
2018-Jan-30 19:00N 38°02' W 122°08'2 3.7
2018-Jan-30 18:23N 38°03' W 122°06'3 4.5
2018-Jan-30 17:45N 38°04' W 122°02'1 3.3
2018-Jan-30 17:25N 38°04' W 122°01'2 3.6
2018-Jan-30 16:57N 38°03' W 121°58'2 4.3
2018-Jan-30 16:26N 38°03' W 121°56'2 4.4
2018-Jan-30 16:00N 38°03' W 121°53'2 0.5
2018-Jan-30 11:10N 38°05' W 121°51'0 0.0
2018-Jan-30 10:30N 38°05' W 121°51'0 0.0
2018-Jan-30 09:28N 38°05' W 121°51'0 0.0
2018-Jan-30 08:46N 38°05' W 121°51'0 0.0
2018-Jan-30 08:30N 38°05' W 121°51'1 1.3
2018-Jan-30 08:00N 38°04' W 121°51'0 0.0
2018-Jan-30 07:30N 38°04' W 121°51'0 0.0
2018-Jan-30 07:00N 38°04' W 121°51'1 1.7
2018-Jan-30 06:28N 38°04' W 121°52'3 5.8
2018-Jan-30 05:59N 38°03' W 121°55'3 5.5
2018-Jan-30 05:24N 38°04' W 121°59'2 5.4
2018-Jan-30 05:00N 38°04' W 122°02'3 5.1
2018-Jan-30 04:30N 38°03' W 122°05'2 4.9
2018-Jan-30 04:00N 38°02' W 122°08'2 4.7
2018-Jan-30 03:30N 38°03' W 122°11'2 3.9
2018-Jan-30 03:00N 38°04' W 122°13'2 3.1
2018-Jan-30 02:30N 38°04' W 122°15'1 2.9
2018-Jan-30 02:00N 38°03' W 122°17'2 3.5
2018-Jan-30 01:30N 38°03' W 122°19'2 3.2
2018-Jan-30 01:00N 38°02' W 122°21'2 3.7
2018-Jan-30 00:30N 38°01' W 122°23'2 3.7
2018-Jan-30 00:00N 37°60' W 122°24'2 4.3
2018-Jan-29 23:30N 37°58' W 122°26'2 3.8
2018-Jan-29 23:00N 37°56' W 122°26'2 3.4
2018-Jan-29 22:30N 37°54' W 122°25'2 4.0
2018-Jan-29 22:00N 37°53' W 122°24'3 6.0
2018-Jan-29 21:30N 37°50' W 122°22'4 7.5
2018-Jan-29 21:01N 37°47' W 122°20'4 7.8
2018-Jan-29 20:30N 37°43' W 122°18'4 7.2
2018-Jan-29 20:00N 37°40' W 122°15'1 2.7
2018-Jan-29 19:30N 37°39' W 122°14'1 1.0
2018-Jan-29 19:00N 37°39' W 122°14'0 0.4
2018-Jan-29 18:30N 37°39' W 122°14'0 0.8
2018-Jan-29 18:00N 37°38' W 122°13'1 1.7
2018-Jan-29 17:30N 37°39' W 122°14'1 1.2
2018-Jan-29 17:00N 37°38' W 122°14'0 0.9
2018-Jan-29 16:30N 37°39' W 122°14'1 1.3
2018-Jan-29 16:00N 37°39' W 122°13'1 1.7
2018-Jan-29 15:30N 37°39' W 122°15'1 1.9
2018-Jan-29 15:00N 37°38' W 122°13'1 1.5
2018-Jan-29 14:30N 37°37' W 122°13'1 1.3
2018-Jan-29 13:59N 37°37' W 122°14'1 1.4
2018-Jan-29 13:30N 37°38' W 122°13'1 2.5
2018-Jan-29 13:00N 37°38' W 122°15'1 1.6
2018-Jan-29 12:30N 37°38' W 122°14'1 1.3
2018-Jan-29 12:00N 37°38' W 122°13'0 0.6
2018-Jan-29 11:30N 37°38' W 122°13'1 1.8
2018-Jan-29 11:00N 37°39' W 122°14'0 0.8
2018-Jan-29 10:30N 37°39' W 122°15'1 1.5
2018-Jan-29 10:00N 37°39' W 122°14'1 1.6
2018-Jan-29 09:30N 37°39' W 122°15'1 1.7
2018-Jan-29 09:00N 37°39' W 122°14'1 1.1
2018-Jan-29 08:30N 37°39' W 122°14'0 1.0
2018-Jan-29 08:00N 37°38' W 122°15'1 1.7
2018-Jan-29 07:30N 37°39' W 122°14'1 1.1
2018-Jan-29 07:00N 37°39' W 122°14'0 1.0
2018-Jan-29 06:30N 37°38' W 122°15'1 2.3
2018-Jan-29 06:00N 37°39' W 122°13'1 2.1
2018-Jan-29 05:30N 37°39' W 122°15'0 1.0
2018-Jan-29 05:00N 37°39' W 122°14'0 1.0
2018-Jan-29 04:30N 37°39' W 122°14'1 1.4
2018-Jan-29 04:00N 37°38' W 122°14'1 1.3
2018-Jan-29 03:30N 37°38' W 122°13'0 0.5
2018-Jan-29 02:59N 37°38' W 122°13'1 1.3
2018-Jan-29 02:30N 37°38' W 122°14'1 1.2
2018-Jan-29 02:00N 37°38' W 122°14'2 3.8
2018-Jan-29 01:30N 37°40' W 122°16'4 7.3
2018-Jan-29 01:01N 37°43' W 122°18'4 7.2
2018-Jan-29 00:30N 37°46' W 122°20'3 7.0
2018-Jan-29 00:00N 37°50' W 122°22'3 6.7
2018-Jan-28 23:30N 37°53' W 122°24'4 8.2
2018-Jan-28 23:00N 37°56' W 122°26'4 8.7
2018-Jan-28 22:29N 38°01' W 122°24'5 9.4
2018-Jan-28 22:00N 38°03' W 122°19'4 7.4
2018-Jan-28 21:30N 38°05' W 122°15'0 0.7
2018-Jan-28 21:00N 38°06' W 122°16'  

Dump ship's entire track history